Luiziana, Brazil
Current Conditions -  °F | °C
As of 4:00 PM on Tuesday 27 Jan 2015 (Local Time) from SBMG Reporting Station
Broken Clouds Broken Clouds  
Wind Chill: 84°   Ceiling: 3000
Heat Index: 88°   Visibility: 6mi
Dew Point: 70°   Wind: 5mph
Humidity: 62%   Direction: 350°N
Pressure: 29.88"   Gusts: NA
Location:  24.29°S, 52.28°W
Report Text: SBMG 271800Z 35004KT 9999 BKN030 29/21 Q1012
Loading
Personal Weather Stations






























Interactive Weather Map New forecast layout! Learn more

10-Day Weather Forecast

Advertisements
Track Severe Weather on mobile